sensor_id;sensor_type;location;lat;lon;timestamp;pressure;altitude;pressure_sealevel;temperature;humidity
59411;BME280;45215;32.610;-115.482;2022-11-15T00:01:49;101826.28;;;19.29;48.82
59411;BME280;45215;32.610;-115.482;2022-11-15T00:04:15;101825.28;;;19.30;48.53
59411;BME280;45215;32.610;-115.482;2022-11-15T00:06:41;101827.97;;;19.30;48.66
59411;BME280;45215;32.610;-115.482;2022-11-15T00:09:07;101823.44;;;19.30;48.38
59411;BME280;45215;32.610;-115.482;2022-11-15T00:11:32;101822.59;;;19.30;48.37
59411;BME280;45215;32.610;-115.482;2022-11-15T00:13:58;101827.97;;;19.30;48.46
59411;BME280;45215;32.610;-115.482;2022-11-15T00:16:27;101826.13;;;19.30;48.45
59411;BME280;45215;32.610;-115.482;2022-11-15T00:18:53;101821.59;;;19.31;48.57
59411;BME280;45215;32.610;-115.482;2022-11-15T00:21:19;101826.00;;;19.32;48.49
59411;BME280;45215;32.610;-115.482;2022-11-15T00:23:44;101815.38;;;19.30;48.28
59411;BME280;45215;32.610;-115.482;2022-11-15T00:26:11;101826.97;;;19.31;48.17
59411;BME280;45215;32.610;-115.482;2022-11-15T00:28:37;101822.47;;;19.31;48.06
59411;BME280;45215;32.610;-115.482;2022-11-15T00:31:04;101825.16;;;19.31;48.39
59411;BME280;45215;32.610;-115.482;2022-11-15T00:33:30;101826.97;;;19.31;48.28
59411;BME280;45215;32.610;-115.482;2022-11-15T00:36:00;101826.97;;;19.31;48.10
59411;BME280;45215;32.610;-115.482;2022-11-15T00:38:30;101819.91;;;19.30;47.81
59411;BME280;45215;32.610;-115.482;2022-11-15T00:40:55;101815.38;;;19.30;47.75
59411;BME280;45215;32.610;-115.482;2022-11-15T00:43:21;101816.22;;;19.31;48.38
59411;BME280;45215;32.610;-115.482;2022-11-15T00:45:47;101820.75;;;19.30;47.98
59411;BME280;45215;32.610;-115.482;2022-11-15T00:48:13;101821.59;;;19.31;47.56
59411;BME280;45215;32.610;-115.482;2022-11-15T00:50:39;101819.91;;;19.30;47.53
59411;BME280;45215;32.610;-115.482;2022-11-15T00:53:04;101820.75;;;19.30;47.47
59411;BME280;45215;32.610;-115.482;2022-11-15T00:55:30;101822.59;;;19.30;47.57
59411;BME280;45215;32.610;-115.482;2022-11-15T00:57:56;101831.50;;;19.30;46.67
59411;BME280;45215;32.610;-115.482;2022-11-15T01:00:22;101822.59;;;19.30;47.14
59411;BME280;45215;32.610;-115.482;2022-11-15T01:02:48;101817.22;;;19.30;45.73
59411;BME280;45215;32.610;-115.482;2022-11-15T01:05:14;101820.63;;;19.32;45.99
59411;BME280;45215;32.610;-115.482;2022-11-15T01:07:39;101822.59;;;19.30;45.89
59411;BME280;45215;32.610;-115.482;2022-11-15T01:10:05;101826.84;;;19.32;45.80
59411;BME280;45215;32.610;-115.482;2022-11-15T01:12:31;101820.63;;;19.32;46.19
59411;BME280;45215;32.610;-115.482;2022-11-15T01:14:57;101825.00;;;19.33;47.13
59411;BME280;45215;32.610;-115.482;2022-11-15T01:17:23;101826.00;;;19.32;45.44
59411;BME280;45215;32.610;-115.482;2022-11-15T01:19:49;101828.69;;;19.32;47.29
59411;BME280;45215;32.610;-115.482;2022-11-15T01:22:15;101833.22;;;19.31;48.76
59411;BME280;45215;32.610;-115.482;2022-11-15T01:24:40;101836.88;;;19.30;47.90
59411;BME280;45215;32.610;-115.482;2022-11-15T01:27:06;101836.63;;;19.24;46.17
59411;BME280;45215;32.610;-115.482;2022-11-15T01:29:32;101840.72;;;19.28;46.51
59411;BME280;45215;32.610;-115.482;2022-11-15T01:31:58;101848.50;;;19.31;48.19
59411;BME280;45215;32.610;-115.482;2022-11-15T01:34:24;101845.81;;;19.31;47.65
59411;BME280;45215;32.610;-115.482;2022-11-15T01:36:49;101851.34;;;19.29;47.77
59411;BME280;45215;32.610;-115.482;2022-11-15T01:39:15;101846.94;;;19.28;48.15
59411;BME280;45215;32.610;-115.482;2022-11-15T01:41:42;101854.16;;;19.28;46.76
59411;BME280;45215;32.610;-115.482;2022-11-15T01:46:51;101852.47;;;19.27;48.35
59411;BME280;45215;32.610;-115.482;2022-11-15T01:49:18;101860.56;;;19.27;48.39
59411;BME280;45215;32.610;-115.482;2022-11-15T01:51:45;101854.16;;;19.28;49.08
59411;BME280;45215;32.610;-115.482;2022-11-15T01:54:12;101849.91;;;19.25;49.12
59411;BME280;45215;32.610;-115.482;2022-11-15T01:56:46;101859.84;;;19.25;48.73
59411;BME280;45215;32.610;-115.482;2022-11-15T01:59:13;101856.69;;;19.20;48.88
59411;BME280;45215;32.610;-115.482;2022-11-15T02:01:40;101859.13;;;19.23;48.87
59411;BME280;45215;32.610;-115.482;2022-11-15T02:04:16;101854.72;;;19.22;48.21
59411;BME280;45215;32.610;-115.482;2022-11-15T02:06:44;101867.44;;;19.20;43.04
59411;BME280;45215;32.610;-115.482;2022-11-15T02:09:12;101867.44;;;19.20;46.97
59411;BME280;45215;32.610;-115.482;2022-11-15T02:11:38;101868.44;;;19.19;48.28
59411;BME280;45215;32.610;-115.482;2022-11-15T02:14:04;101866.06;;;19.25;47.44
59411;BME280;45215;32.610;-115.482;2022-11-15T02:21:41;101860.56;;;19.27;48.30
59411;BME280;45215;32.610;-115.482;2022-11-15T02:27:01;101852.59;;;19.25;49.03
59411;BME280;45215;32.610;-115.482;2022-11-15T02:29:57;101854.47;;;19.25;49.05
59411;BME280;45215;32.610;-115.482;2022-11-15T02:32:31;101868.03;;;19.23;49.00
59411;BME280;45215;32.610;-115.482;2022-11-15T02:40:11;101877.97;;;19.23;49.32
59411;BME280;45215;32.610;-115.482;2022-11-15T02:42:41;101872.56;;;19.23;48.76
59411;BME280;45215;32.610;-115.482;2022-11-15T02:45:28;101871.69;;;19.22;49.06
59411;BME280;45215;32.610;-115.482;2022-11-15T02:47:56;101869.88;;;19.23;48.98
59411;BME280;45215;32.610;-115.482;2022-11-15T02:50:25;101873.72;;;19.20;47.79
59411;BME280;45215;32.610;-115.482;2022-11-15T02:52:52;101878.94;;;19.22;49.25
59411;BME280;45215;32.610;-115.482;2022-11-15T03:00:58;101883.59;;;19.20;47.79
59411;BME280;45215;32.610;-115.482;2022-11-15T03:16:06;101883.03;;;19.16;49.19
59411;BME280;45215;32.610;-115.482;2022-11-15T03:18:38;101890.38;;;19.14;49.15
59411;BME280;45215;32.610;-115.482;2022-11-15T03:21:08;101892.22;;;19.13;49.12
59411;BME280;45215;32.610;-115.482;2022-11-15T03:23:36;101887.00;;;19.12;49.03
59411;BME280;45215;32.610;-115.482;2022-11-15T03:26:03;101894.25;;;19.11;49.00
59411;BME280;45215;32.610;-115.482;2022-11-15T03:28:37;101889.84;;;19.10;48.80
59411;BME280;45215;32.610;-115.482;2022-11-15T03:31:04;101900.59;;;19.10;48.49
59411;BME280;45215;32.610;-115.482;2022-11-15T03:33:51;101893.53;;;19.09;48.16
59411;BME280;45215;32.610;-115.482;2022-11-15T03:36:18;101889.13;;;19.08;47.00
59411;BME280;45215;32.610;-115.482;2022-11-15T03:38:45;101891.81;;;19.08;47.90
59411;BME280;45215;32.610;-115.482;2022-11-15T03:41:16;101886.72;;;19.05;48.21
59411;BME280;45215;32.610;-115.482;2022-11-15T03:46:14;101892.81;;;19.07;48.52
59411;BME280;45215;32.610;-115.482;2022-11-15T03:48:49;101900.88;;;19.07;48.31
59411;BME280;45215;32.610;-115.482;2022-11-15T03:51:16;101899.19;;;19.06;48.02
59411;BME280;45215;32.610;-115.482;2022-11-15T03:53:42;101902.84;;;19.05;48.17
59411;BME280;45215;32.610;-115.482;2022-11-15T03:56:08;101909.94;;;19.06;48.07
59411;BME280;45215;32.610;-115.482;2022-11-15T03:58:33;101907.38;;;19.05;47.02
59411;BME280;45215;32.610;-115.482;2022-11-15T04:00:59;101918.97;;;19.05;48.26
59411;BME280;45215;32.610;-115.482;2022-11-15T04:03:25;101918.97;;;19.05;46.52
59411;BME280;45215;32.610;-115.482;2022-11-15T04:05:51;101928.78;;;19.06;46.32
59411;BME280;45215;32.610;-115.482;2022-11-15T04:08:16;101924.06;;;19.08;46.33
59411;BME280;45215;32.610;-115.482;2022-11-15T04:10:42;101927.78;;;19.07;47.27
59411;BME280;45215;32.610;-115.482;2022-11-15T04:13:08;101924.38;;;19.05;46.42
59411;BME280;45215;32.610;-115.482;2022-11-15T04:15:34;101919.69;;;19.07;47.47
59411;BME280;45215;32.610;-115.482;2022-11-15T04:18:00;101922.38;;;19.07;47.89
59411;BME280;45215;32.610;-115.482;2022-11-15T04:20:27;101931.47;;;19.06;47.14
59411;BME280;45215;32.610;-115.482;2022-11-15T04:23:18;101928.78;;;19.06;46.96
59411;BME280;45215;32.610;-115.482;2022-11-15T04:26:04;101936.84;;;19.06;45.99
59411;BME280;45215;32.610;-115.482;2022-11-15T04:28:31;101933.88;;;19.09;46.97
59411;BME280;45215;32.610;-115.482;2022-11-15T04:30:56;101941.94;;;19.09;45.88
59411;BME280;45215;32.610;-115.482;2022-11-15T04:33:22;101938.25;;;19.10;47.18
59411;BME280;45215;32.610;-115.482;2022-11-15T04:35:48;101941.09;;;19.09;46.08
59411;BME280;45215;32.610;-115.482;2022-11-15T04:38:32;101944.75;;;19.08;46.86
59411;BME280;45215;32.610;-115.482;2022-11-15T04:40:58;101954.66;;;19.07;46.19
59411;BME280;45215;32.610;-115.482;2022-11-15T04:43:24;101954.66;;;19.07;45.81
59411;BME280;45215;32.610;-115.482;2022-11-15T04:45:50;101952.69;;;19.09;45.80
59411;BME280;45215;32.610;-115.482;2022-11-15T04:48:16;101956.34;;;19.08;45.59
59411;BME280;45215;32.610;-115.482;2022-11-15T04:50:41;101961.72;;;19.08;46.82
59411;BME280;45215;32.610;-115.482;2022-11-15T04:53:07;101956.50;;;19.07;46.92
59411;BME280;45215;32.610;-115.482;2022-11-15T04:55:33;101945.56;;;18.69;37.86
59411;BME280;45215;32.610;-115.482;2022-11-15T04:57:59;101951.78;;;18.80;46.18
59411;BME280;45215;32.610;-115.482;2022-11-15T05:00:26;101951.53;;;18.92;46.11
59411;BME280;45215;32.610;-115.482;2022-11-15T05:02:51;101955.50;;;19.08;46.43
59411;BME280;45215;32.610;-115.482;2022-11-15T05:05:36;101950.16;;;19.18;47.26
59411;BME280;45215;32.610;-115.482;2022-11-15T05:08:02;101948.16;;;19.20;46.80
59411;BME280;45215;32.610;-115.482;2022-11-15T05:10:28;101952.56;;;19.21;47.87
59411;BME280;45215;32.610;-115.482;2022-11-15T05:12:54;101960.63;;;19.21;47.67
59411;BME280;45215;32.610;-115.482;2022-11-15T05:15:19;101962.59;;;19.19;46.56
59411;BME280;45215;32.610;-115.482;2022-11-15T05:17:45;101953.69;;;19.18;46.90
59411;BME280;45215;32.610;-115.482;2022-11-15T05:20:11;101959.63;;;19.22;47.76
59411;BME280;45215;32.610;-115.482;2022-11-15T05:22:37;101964.03;;;19.23;47.82
59411;BME280;45215;32.610;-115.482;2022-11-15T05:25:03;101965.75;;;19.24;48.42
59411;BME280;45215;32.610;-115.482;2022-11-15T05:27:29;101970.13;;;19.25;48.87
59411;BME280;45215;32.610;-115.482;2022-11-15T05:29:54;101965.47;;;19.27;49.26
59411;BME280;45215;32.610;-115.482;2022-11-15T05:32:20;101963.63;;;19.27;49.34
59411;BME280;45215;32.610;-115.482;2022-11-15T05:34:46;101970.56;;;19.30;49.50
59411;BME280;45215;32.610;-115.482;2022-11-15T05:37:13;101970.44;;;19.31;49.77
59411;BME280;45215;32.610;-115.482;2022-11-15T05:39:38;101975.66;;;19.33;49.48
59411;BME280;45215;32.610;-115.482;2022-11-15T05:44:30;101969.28;;;19.34;49.09
59411;BME280;45215;32.610;-115.482;2022-11-15T05:46:56;101972.84;;;19.34;49.16
59411;BME280;45215;32.610;-115.482;2022-11-15T05:49:23;101973.69;;;19.35;49.15
59411;BME280;45215;32.610;-115.482;2022-11-15T05:51:50;101971.84;;;19.35;49.12
59411;BME280;45215;32.610;-115.482;2022-11-15T05:54:17;101971.00;;;19.35;48.77
59411;BME280;45215;32.610;-115.482;2022-11-15T05:56:43;101972.69;;;19.36;48.70
59411;BME280;45215;32.610;-115.482;2022-11-15T05:59:09;101970.00;;;19.36;48.69
59411;BME280;45215;32.610;-115.482;2022-11-15T06:01:36;101971.72;;;19.37;48.72
59411;BME280;45215;32.610;-115.482;2022-11-15T06:04:02;101965.63;;;19.35;48.36
59411;BME280;45215;32.610;-115.482;2022-11-15T06:06:28;101971.00;;;19.35;49.16
59411;BME280;45215;32.610;-115.482;2022-11-15T06:08:54;101964.91;;;19.33;48.91
59411;BME280;45215;32.610;-115.482;2022-11-15T06:11:20;101965.06;;;19.31;49.44
59411;BME280;45215;32.610;-115.482;2022-11-15T06:13:45;101963.50;;;19.29;48.38
59411;BME280;45215;32.610;-115.482;2022-11-15T06:16:11;101970.84;;;19.27;48.88
59411;BME280;45215;32.610;-115.482;2022-11-15T06:18:37;101965.59;;;19.25;49.61
59411;BME280;45215;32.610;-115.482;2022-11-15T06:21:03;101968.44;;;19.24;50.09
59411;BME280;45215;32.610;-115.482;2022-11-15T06:23:33;101969.41;;;19.23;50.03
59411;BME280;45215;32.610;-115.482;2022-11-15T06:25:59;101975.94;;;19.20;49.81
59411;BME280;45215;32.610;-115.482;2022-11-15T06:28:29;101975.06;;;19.20;50.11
59411;BME280;45215;32.610;-115.482;2022-11-15T06:30:55;101980.72;;;19.16;48.17
59411;BME280;45215;32.610;-115.482;2022-11-15T06:33:21;101977.06;;;19.18;49.90
59411;BME280;45215;32.610;-115.482;2022-11-15T06:35:46;101981.72;;;19.15;49.67
59411;BME280;45215;32.610;-115.482;2022-11-15T06:38:12;101986.38;;;19.13;49.72
59411;BME280;45215;32.610;-115.482;2022-11-15T06:40:38;101980.31;;;19.11;49.89
59411;BME280;45215;32.610;-115.482;2022-11-15T06:43:05;101982.28;;;19.09;48.36
59411;BME280;45215;32.610;-115.482;2022-11-15T06:45:31;101979.72;;;19.08;48.82
59411;BME280;45215;32.610;-115.482;2022-11-15T06:47:57;101972.09;;;19.03;49.75
59411;BME280;45215;32.610;-115.482;2022-11-15T06:50:23;101974.50;;;19.06;49.10
59411;BME280;45215;32.610;-115.482;2022-11-15T06:52:49;101971.09;;;19.04;47.94
59411;BME280;45215;32.610;-115.482;2022-11-15T06:55:15;101971.94;;;19.05;49.63
59411;BME280;45215;32.610;-115.482;2022-11-15T06:57:47;101964.84;;;19.04;49.33
59411;BME280;45215;32.610;-115.482;2022-11-15T07:00:13;101967.69;;;19.02;49.23
59411;BME280;45215;32.610;-115.482;2022-11-15T07:02:39;101970.38;;;19.02;50.08
59411;BME280;45215;32.610;-115.482;2022-11-15T07:05:05;101969.53;;;19.02;48.42
59411;BME280;45215;32.610;-115.482;2022-11-15T07:07:31;101966.81;;;19.02;48.89
59411;BME280;45215;32.610;-115.482;2022-11-15T07:09:57;101968.69;;;19.01;49.36
59411;BME280;45215;32.610;-115.482;2022-11-15T07:12:22;101966.00;;;19.01;47.63
59411;BME280;45215;32.610;-115.482;2022-11-15T07:14:48;101975.91;;;19.01;48.59
59411;BME280;45215;32.610;-115.482;2022-11-15T07:17:14;101963.28;;;19.01;49.70
59411;BME280;45215;32.610;-115.482;2022-11-15T07:19:40;101963.41;;;19.00;48.75
59411;BME280;45215;32.610;-115.482;2022-11-15T07:22:05;101968.81;;;19.00;48.70
59411;BME280;45215;32.610;-115.482;2022-11-15T07:24:31;101967.28;;;18.97;48.13
59411;BME280;45215;32.610;-115.482;2022-11-15T07:26:57;101968.13;;;18.98;48.98
59411;BME280;45215;32.610;-115.482;2022-11-15T07:29:26;101970.94;;;18.96;48.17
59411;BME280;45215;32.610;-115.482;2022-11-15T07:31:51;101970.81;;;18.98;47.57
59411;BME280;45215;32.610;-115.482;2022-11-15T07:34:17;101968.13;;;18.98;47.67
59411;BME280;45215;32.610;-115.482;2022-11-15T07:36:43;101957.47;;;18.96;49.37
59411;BME280;45215;32.610;-115.482;2022-11-15T07:39:09;101959.44;;;18.94;49.00
59411;BME280;45215;32.610;-115.482;2022-11-15T07:41:35;101967.66;;;18.92;48.41
59411;BME280;45215;32.610;-115.482;2022-11-15T07:44:01;101968.50;;;18.93;48.38
59411;BME280;45215;32.610;-115.482;2022-11-15T07:46:26;101961.44;;;18.92;48.36
59411;BME280;45215;32.610;-115.482;2022-11-15T07:48:52;101965.97;;;18.91;47.79
59411;BME280;45215;32.610;-115.482;2022-11-15T07:51:18;101963.13;;;18.93;48.10
59411;BME280;45215;32.610;-115.482;2022-11-15T07:53:44;101967.66;;;18.92;47.98
59411;BME280;45215;32.610;-115.482;2022-11-15T07:56:10;101964.97;;;18.92;48.55
59411;BME280;45215;32.610;-115.482;2022-11-15T07:58:36;101967.66;;;18.92;49.47
59411;BME280;45215;32.610;-115.482;2022-11-15T08:01:02;101959.72;;;18.91;48.82
59411;BME280;45215;32.610;-115.482;2022-11-15T08:03:29;101959.72;;;18.91;47.35
59411;BME280;45215;32.610;-115.482;2022-11-15T08:05:54;101951.66;;;18.91;47.37
59411;BME280;45215;32.610;-115.482;2022-11-15T08:08:20;101955.91;;;18.93;47.51
59411;BME280;45215;32.610;-115.482;2022-11-15T08:10:46;101960.44;;;18.93;47.38
59411;BME280;45215;32.610;-115.482;2022-11-15T08:13:12;101955.22;;;18.91;47.15
59411;BME280;45215;32.610;-115.482;2022-11-15T08:15:38;101957.03;;;18.91;47.33
59411;BME280;45215;32.610;-115.482;2022-11-15T08:18:05;101949.84;;;18.91;47.70
59411;BME280;45215;32.610;-115.482;2022-11-15T08:20:31;101956.34;;;18.89;48.74
59411;BME280;45215;32.610;-115.482;2022-11-15T08:22:58;101953.94;;;18.86;49.03
59411;BME280;45215;32.610;-115.482;2022-11-15T08:25:25;101950.66;;;18.82;49.25
59411;BME280;45215;32.610;-115.482;2022-11-15T08:27:52;101955.19;;;18.82;49.23
59411;BME280;45215;32.610;-115.482;2022-11-15T08:30:18;101964.25;;;18.81;49.27
59411;BME280;45215;32.610;-115.482;2022-11-15T08:32:44;101957.16;;;18.80;49.36
59411;BME280;45215;32.610;-115.482;2022-11-15T08:35:10;101960.00;;;18.78;49.41
59411;BME280;45215;32.610;-115.482;2022-11-15T08:37:36;101964.53;;;18.78;49.05
59411;BME280;45215;32.610;-115.482;2022-11-15T08:40:02;101970.88;;;18.77;49.19
59411;BME280;45215;32.610;-115.482;2022-11-15T08:42:28;101966.50;;;18.76;48.99
59411;BME280;45215;32.610;-115.482;2022-11-15T08:44:54;101966.63;;;18.74;49.17
59411;BME280;45215;32.610;-115.482;2022-11-15T08:47:19;101968.34;;;18.75;49.03
59411;BME280;45215;32.610;-115.482;2022-11-15T08:49:45;101972.00;;;18.74;49.04
59411;BME280;45215;32.610;-115.482;2022-11-15T08:52:11;101972.00;;;18.74;48.96
59411;BME280;45215;32.610;-115.482;2022-11-15T08:54:37;101966.78;;;18.73;49.10
59411;BME280;45215;32.610;-115.482;2022-11-15T08:57:02;101965.09;;;18.72;49.01
59411;BME280;45215;32.610;-115.482;2022-11-15T08:59:28;101965.09;;;18.72;48.56
59411;BME280;45215;32.610;-115.482;2022-11-15T09:01:54;101969.59;;;18.71;48.92
59411;BME280;45215;32.610;-115.482;2022-11-15T09:04:20;101965.22;;;18.70;48.87
59411;BME280;45215;32.610;-115.482;2022-11-15T09:06:45;101967.06;;;18.69;48.82
59411;BME280;45215;32.610;-115.482;2022-11-15T09:09:11;101970.72;;;18.68;48.39
59411;BME280;45215;32.610;-115.482;2022-11-15T09:11:37;101972.72;;;18.66;47.12
59411;BME280;45215;32.610;-115.482;2022-11-15T09:14:03;101959.28;;;18.66;47.11
59411;BME280;45215;32.610;-115.482;2022-11-15T09:16:30;101954.88;;;18.65;47.05
59411;BME280;45215;32.610;-115.482;2022-11-15T09:18:56;101954.75;;;18.67;48.76
59411;BME280;45215;32.610;-115.482;2022-11-15T09:21:21;101949.38;;;18.67;47.48
59411;BME280;45215;32.610;-115.482;2022-11-15T09:23:49;101956.59;;;18.66;46.59
59411;BME280;45215;32.610;-115.482;2022-11-15T09:26:15;101956.59;;;18.66;46.53
59411;BME280;45215;32.610;-115.482;2022-11-15T09:28:41;101965.50;;;18.67;46.15
59411;BME280;45215;32.610;-115.482;2022-11-15T09:31:07;101964.66;;;18.66;45.84
59411;BME280;45215;32.610;-115.482;2022-11-15T09:33:33;101966.75;;;18.63;46.20
59411;BME280;45215;32.610;-115.482;2022-11-15T09:36:02;101965.88;;;18.62;46.27
59411;BME280;45215;32.610;-115.482;2022-11-15T09:38:29;101956.88;;;18.63;46.21
59411;BME280;45215;32.610;-115.482;2022-11-15T09:41:08;101962.09;;;18.65;46.04
59411;BME280;45215;32.610;-115.482;2022-11-15T09:48:55;101953.19;;;18.64;46.70
59411;BME280;45215;32.610;-115.482;2022-11-15T09:51:30;101957.81;;;18.62;46.45
59411;BME280;45215;32.610;-115.482;2022-11-15T09:56:35;101963.34;;;18.61;46.14
59411;BME280;45215;32.610;-115.482;2022-11-15T09:59:05;101960.78;;;18.59;45.90
59411;BME280;45215;32.610;-115.482;2022-11-15T10:03:58;101960.50;;;18.53;45.42
59411;BME280;45215;32.610;-115.482;2022-11-15T10:06:25;101969.41;;;18.53;45.74
59411;BME280;45215;32.610;-115.482;2022-11-15T10:08:57;101970.69;;;18.49;45.16
59411;BME280;45215;32.610;-115.482;2022-11-15T10:11:28;101959.22;;;18.47;45.89
59411;BME280;45215;32.610;-115.482;2022-11-15T10:13:56;101968.97;;;18.48;45.81
59411;BME280;45215;32.610;-115.482;2022-11-15T10:24:09;101969.38;;;18.43;45.75
59411;BME280;45215;32.610;-115.482;2022-11-15T10:26:36;101965.97;;;18.41;45.55
59411;BME280;45215;32.610;-115.482;2022-11-15T10:29:01;101957.19;;;18.39;45.80
59411;BME280;45215;32.610;-115.482;2022-11-15T10:31:28;101951.97;;;18.38;45.86
59411;BME280;45215;32.610;-115.482;2022-11-15T10:34:09;101951.81;;;18.39;46.05
59411;BME280;45215;32.610;-115.482;2022-11-15T10:36:37;101952.66;;;18.40;45.79
59411;BME280;45215;32.610;-115.482;2022-11-15T10:39:04;101957.34;;;18.38;45.90
59411;BME280;45215;32.610;-115.482;2022-11-15T10:41:31;101953.81;;;18.37;45.63
59411;BME280;45215;32.610;-115.482;2022-11-15T10:46:28;101954.50;;;18.39;45.60
59411;BME280;45215;32.610;-115.482;2022-11-15T10:49:04;101949.28;;;18.38;45.85
59411;BME280;45215;32.610;-115.482;2022-11-15T10:51:41;101945.03;;;18.35;45.28
59411;BME280;45215;32.610;-115.482;2022-11-15T10:54:08;101950.53;;;18.34;45.53
59411;BME280;45215;32.610;-115.482;2022-11-15T10:56:36;101949.56;;;18.35;45.29
59411;BME280;45215;32.610;-115.482;2022-11-15T10:59:02;101955.91;;;18.34;45.51
59411;BME280;45215;32.610;-115.482;2022-11-15T11:01:28;101952.50;;;18.32;45.37
59411;BME280;45215;32.610;-115.482;2022-11-15T11:04:04;101958.13;;;18.29;45.19
59411;BME280;45215;32.610;-115.482;2022-11-15T11:06:31;101941.56;;;18.23;45.26
59411;BME280;45215;32.610;-115.482;2022-11-15T11:09:23;101954.72;;;18.26;45.20
59411;BME280;45215;32.610;-115.482;2022-11-15T11:11:52;101950.47;;;18.24;45.16
59411;BME280;45215;32.610;-115.482;2022-11-15T11:29:24;101955.00;;;18.23;45.28
59411;BME280;45215;32.610;-115.482;2022-11-15T11:36:49;101954.13;;;18.23;45.16
59411;BME280;45215;32.610;-115.482;2022-11-15T11:42:11;101961.22;;;18.24;45.32
59411;BME280;45215;32.610;-115.482;2022-11-15T11:49:43;101966.84;;;18.21;45.19
59411;BME280;45215;32.610;-115.482;2022-11-15T12:00:03;101978.13;;;18.15;45.18
59411;BME280;45215;32.610;-115.482;2022-11-15T12:02:37;101980.22;;;18.11;44.88
59411;BME280;45215;32.610;-115.482;2022-11-15T12:05:15;101974.00;;;18.11;44.79
59411;BME280;45215;32.610;-115.482;2022-11-15T12:07:43;101977.53;;;18.11;45.11
59411;BME280;45215;32.610;-115.482;2022-11-15T12:10:30;101972.16;;;18.11;46.39
59411;BME280;45215;32.610;-115.482;2022-11-15T12:15:35;101978.97;;;18.15;45.23
59411;BME280;45215;32.610;-115.482;2022-11-15T12:18:02;101977.53;;;18.11;45.25
59411;BME280;45215;32.610;-115.482;2022-11-15T12:20:31;101981.22;;;18.10;44.92
59411;BME280;45215;32.610;-115.482;2022-11-15T12:23:15;101982.31;;;18.08;45.10
59411;BME280;45215;32.610;-115.482;2022-11-15T12:30:53;101988.06;;;18.03;44.83
59411;BME280;45215;32.610;-115.482;2022-11-15T12:33:42;101990.63;;;18.04;44.78
59411;BME280;45215;32.610;-115.482;2022-11-15T12:36:10;101995.16;;;18.04;45.07
59411;BME280;45215;32.610;-115.482;2022-11-15T12:39:21;101993.31;;;18.04;44.92
59411;BME280;45215;32.610;-115.482;2022-11-15T12:41:23;101991.63;;;18.03;45.25
59411;BME280;45215;32.610;-115.482;2022-11-15T12:43:49;102004.19;;;18.03;44.73
59411;BME280;45215;32.610;-115.482;2022-11-15T12:48:46;101993.59;;;18.01;44.79
59411;BME280;45215;32.610;-115.482;2022-11-15T12:51:12;101992.75;;;18.01;45.28
59411;BME280;45215;32.610;-115.482;2022-11-15T12:53:38;101998.13;;;18.01;45.05
59411;BME280;45215;32.610;-115.482;2022-11-15T13:01:06;102006.03;;;18.02;46.69
59411;BME280;45215;32.610;-115.482;2022-11-15T13:03:32;102011.41;;;18.02;45.95
59411;BME280;45215;32.610;-115.482;2022-11-15T13:05:58;102014.94;;;18.03;45.76
59411;BME280;45215;32.610;-115.482;2022-11-15T13:14:19;102005.19;;;18.02;44.86
59411;BME280;45215;32.610;-115.482;2022-11-15T13:16:52;102013.38;;;18.00;45.14
59411;BME280;45215;32.610;-115.482;2022-11-15T13:19:22;102021.44;;;18.00;45.29
59411;BME280;45215;32.610;-115.482;2022-11-15T13:21:49;102019.72;;;17.99;46.58
59411;BME280;45215;32.610;-115.482;2022-11-15T13:24:33;102020.97;;;17.95;46.73
59411;BME280;45215;32.610;-115.482;2022-11-15T13:26:59;102023.66;;;17.95;46.39
59411;BME280;45215;32.610;-115.482;2022-11-15T13:29:24;102017.44;;;17.95;45.30
59411;BME280;45215;32.610;-115.482;2022-11-15T13:31:50;102023.50;;;17.97;45.55
59411;BME280;45215;32.610;-115.482;2022-11-15T13:34:30;102019.13;;;17.96;45.40
59411;BME280;45215;32.610;-115.482;2022-11-15T13:37:01;102014.75;;;17.95;45.72
59411;BME280;45215;32.610;-115.482;2022-11-15T13:39:28;102026.34;;;17.95;46.91
59411;BME280;45215;32.610;-115.482;2022-11-15T13:41:54;102031.81;;;17.94;46.61
59411;BME280;45215;32.610;-115.482;2022-11-15T13:44:30;102031.13;;;17.92;45.41
59411;BME280;45215;32.610;-115.482;2022-11-15T13:47:04;102021.63;;;17.88;45.84
59411;BME280;45215;32.610;-115.482;2022-11-15T13:49:30;102029.41;;;17.91;46.11
59411;BME280;45215;32.610;-115.482;2022-11-15T13:51:57;102041.00;;;17.91;45.31
59411;BME280;45215;32.610;-115.482;2022-11-15T13:56:52;102039.34;;;18.00;46.85
59411;BME280;45215;32.610;-115.482;2022-11-15T13:59:34;102044.16;;;17.96;46.92
59411;BME280;45215;32.610;-115.482;2022-11-15T14:02:13;102044.56;;;17.92;47.17
59411;BME280;45215;32.610;-115.482;2022-11-15T14:04:55;102046.50;;;17.90;47.19
59411;BME280;45215;32.610;-115.482;2022-11-15T14:07:23;102051.16;;;17.88;47.27
59411;BME280;45215;32.610;-115.482;2022-11-15T14:09:49;102048.72;;;17.85;47.14
59411;BME280;45215;32.610;-115.482;2022-11-15T14:12:31;102054.22;;;17.83;46.46
59411;BME280;45215;32.610;-115.482;2022-11-15T14:14:58;102052.41;;;17.84;46.98
59411;BME280;45215;32.610;-115.482;2022-11-15T14:19:57;102059.00;;;17.79;47.31
59411;BME280;45215;32.610;-115.482;2022-11-15T14:27:37;102070.00;;;17.76;46.95
59411;BME280;45215;32.610;-115.482;2022-11-15T14:30:04;102073.66;;;17.75;47.46
59411;BME280;45215;32.610;-115.482;2022-11-15T14:32:36;102073.41;;;17.78;47.50